ETNS

Schleswig Airport

Germany

ETNS 110820Z 03007KT 9999 BKN043 00/M02 Q0985 BLACKBLU BLU TEMPO GRN

Observed Flight Rules
Dec-11 @ 08:20 UTC (an hour ago) Visual Flight Rules
Wind Visibility Clouds
30° at 7 knots 10,000+ meters
  • Broken at 4,300' AGL
Temperatures Readings
Current 0°C / 32°F
Dewpoint -2°C / 28°F
Humidity 87%
Altimeter 29.08" Hg
Pressure 985 hPa
Elevation 25
Observed Flight Rules
Dec-11 @ 08:20 UTC
(an hour ago)
VFR
Wind Visibility
30° at 7 knots 10,000+ meters
Clouds
  • Broken at 4,300' AGL
Temperature Dewpoint
0°C / 32°F -2°C / 28°F
Humidity Altimeter Pressure
87% 29.08" Hg 985 hPa